Terminal Aerodrome Forecast
Issued by NWS Sterling, VA

Current Version | Previous Version | Text Only | Print | Product List | Glossary Off
Versions: 1 2 3 4 5 6 7 8 9 10 11 12 13 14 15 16 17 18 19 20 21 22 23 24 25

000
FTUS41 KLWX 281129
TAFDCA
TAF
KDCA 281129Z 2812/2912 20008KT P6SM FEW007 SCT120 OVC250
     FM282100 16006KT P6SM VCTS BKN050CB
     FM290200 VRB04KT P6SM BKN080=

USA.gov is the U.S. government's official web portal to all federal, state and local government web resources and services.